Avondale, Missouri
Current Conditions -  °F | °C
As of 6:54 PM on Thursday 27 Nov 2014 (Local Time) from KMKC Reporting Station
Clear Clear  
Wind Chill: 27°   Ceiling: Unl
Heat Index: 33°   Visibility: 10mi
Dew Point: 23°   Wind: 7mph
Humidity: 66%   Direction: 90°E
Pressure: 30.36"   Gusts: NA
Location:  39.1657°N, 94.5231°W
Report Text: KMKC 280054Z 09006KT 10SM CLR 01/M05 A3036 RMK AO2 SLP287 T00061050
Loading
Personal Weather Stations






























Interactive Weather Map New forecast layout! Learn more

10-Day Weather Forecast

Advertisements
Track Severe Weather on mobile